Terminal Aerodrome Forecast
Issued by NWS Wichita, KS

Home | Current Version | Previous Version | Text Only | Print | Product List | Glossary Off
Versions: 1 2 3 4 5 6 7 8 9 10 11 12 13 14 15 16 17 18

000
FTUS43 KICT 251720
TAFICT
TAF
KICT 251720Z 2518/2618 17010KT P6SM FEW120
     FM251900 18015G23KT P6SM FEW060
     FM260000 18009KT P6SM FEW070 SCT150
     FM261500 20012KT P6SM SCT150=

USA.gov is the U.S. government's official web portal to all federal, state and local government web resources and services.